createdAt,value
2023-02-16T00:01:25.699Z,25.48
2023-02-16T00:03:55.091Z,24.73
2023-02-16T00:06:23.211Z,25.02
2023-02-16T00:08:53.220Z,31.88
2023-02-16T00:11:41.855Z,30.33
2023-02-16T00:14:12.842Z,30.02
2023-02-16T00:16:40.583Z,30.95
2023-02-16T00:19:20.168Z,38.00
2023-02-16T00:21:48.096Z,34.05
2023-02-16T00:24:15.762Z,36.47
2023-02-16T00:26:44.180Z,32.20
2023-02-16T00:29:17.326Z,32.38
2023-02-16T00:31:45.040Z,31.75
2023-02-16T00:34:26.176Z,33.20
2023-02-16T00:36:54.743Z,35.20
2023-02-16T00:39:24.939Z,34.67
2023-02-16T00:41:55.286Z,33.83
2023-02-16T00:44:32.489Z,31.10
2023-02-16T00:47:04.050Z,36.33
2023-02-16T00:49:31.607Z,32.42
2023-02-16T00:51:59.210Z,36.38
2023-02-16T00:54:26.772Z,33.13
2023-02-16T00:56:54.371Z,34.88
2023-02-16T00:59:23.792Z,34.53
2023-02-16T01:01:52.784Z,37.50
2023-02-16T01:04:24.173Z,36.95
2023-02-16T01:07:09.448Z,39.40
2023-02-16T01:09:54.915Z,38.95
2023-02-16T01:12:23.086Z,36.38
2023-02-16T01:14:53.174Z,35.35
2023-02-16T01:17:25.589Z,40.72
2023-02-16T01:19:56.054Z,35.33
2023-02-16T01:22:23.849Z,37.53
2023-02-16T01:24:51.445Z,37.15
2023-02-16T01:27:19.095Z,34.28
2023-02-16T01:29:46.650Z,37.47
2023-02-16T01:32:16.583Z,35.83
2023-02-16T01:34:45.647Z,40.28
2023-02-16T01:37:16.290Z,36.95
2023-02-16T01:39:44.888Z,38.28
2023-02-16T01:42:30.384Z,39.88
2023-02-16T01:45:02.858Z,45.08
2023-02-16T01:47:36.963Z,37.88
2023-02-16T01:50:18.588Z,41.40
2023-02-16T01:52:50.839Z,36.67
2023-02-16T01:55:22.998Z,40.72
2023-02-16T01:57:53.989Z,37.60
2023-02-16T02:00:28.339Z,37.72
2023-02-16T02:03:19.406Z,34.63
2023-02-16T02:05:48.499Z,37.65
2023-02-16T02:08:22.704Z,40.08
2023-02-16T02:11:06.038Z,35.53
2023-02-16T02:13:41.452Z,41.15
2023-02-16T02:16:10.919Z,37.90
2023-02-16T02:18:39.341Z,36.75
2023-02-16T02:21:47.068Z,38.38
2023-02-16T02:24:35.670Z,38.15
2023-02-16T02:27:21.712Z,35.47
2023-02-16T02:30:04.812Z,37.03
2023-02-16T02:32:43.288Z,37.97
2023-02-16T02:35:20.535Z,40.72
2023-02-16T02:37:55.602Z,35.22
2023-02-16T02:40:32.825Z,39.22
2023-02-16T02:43:11.110Z,43.47
2023-02-16T02:45:44.163Z,40.95
2023-02-16T02:48:12.046Z,40.40
2023-02-16T02:51:04.153Z,38.55
2023-02-16T02:53:33.775Z,34.08
2023-02-16T02:56:21.142Z,35.17
2023-02-16T02:59:17.331Z,40.78
2023-02-16T03:01:50.926Z,36.25
2023-02-16T03:04:22.836Z,36.25
2023-02-16T03:06:54.611Z,38.00
2023-02-16T03:09:22.372Z,43.22
2023-02-16T03:12:09.227Z,40.45
2023-02-16T03:14:42.843Z,40.20
2023-02-16T03:17:31.206Z,39.50
2023-02-16T03:20:17.883Z,39.35
2023-02-16T03:23:03.798Z,39.92
2023-02-16T03:25:52.778Z,40.05
2023-02-16T03:28:40.715Z,39.35
2023-02-16T03:31:12.786Z,31.40
2023-02-16T03:33:41.231Z,37.95
2023-02-16T03:36:09.404Z,36.53
2023-02-16T03:38:37.715Z,41.35
2023-02-16T03:41:06.074Z,34.28
2023-02-16T03:43:33.974Z,37.42
2023-02-16T03:46:01.701Z,38.08
2023-02-16T03:48:30.592Z,39.00
2023-02-16T03:50:58.172Z,41.25
2023-02-16T03:53:26.127Z,35.13
2023-02-16T03:55:53.679Z,33.97
2023-02-16T03:58:23.487Z,35.15
2023-02-16T04:00:51.512Z,36.70
2023-02-16T04:03:19.285Z,36.42
2023-02-16T04:05:48.159Z,38.58
2023-02-16T04:08:15.708Z,40.40
2023-02-16T04:10:43.378Z,40.67
2023-02-16T04:13:10.014Z,46.42
2023-02-16T04:15:37.737Z,41.33
2023-02-16T04:18:05.373Z,39.35
2023-02-16T04:20:34.580Z,43.75
2023-02-16T04:23:03.593Z,36.60
2023-02-16T04:25:31.232Z,39.53
2023-02-16T04:27:59.247Z,40.70
2023-02-16T04:30:28.749Z,35.80
2023-02-16T04:32:57.156Z,38.70
2023-02-16T04:35:24.818Z,34.13
2023-02-16T04:37:52.373Z,41.83
2023-02-16T04:40:21.326Z,37.53
2023-02-16T04:42:48.997Z,37.35
2023-02-16T04:45:16.701Z,35.50
2023-02-16T04:47:44.283Z,35.35
2023-02-16T04:50:13.348Z,39.25
2023-02-16T04:52:41.411Z,36.25
2023-02-16T04:55:10.859Z,38.38
2023-02-16T04:57:40.560Z,34.17
2023-02-16T05:00:11.753Z,40.63
2023-02-16T05:02:39.630Z,41.38
2023-02-16T05:05:08.295Z,37.85
2023-02-16T05:07:36.116Z,33.08
2023-02-16T05:10:03.759Z,34.88
2023-02-16T05:12:49.131Z,39.45
2023-02-16T05:15:18.421Z,35.00
2023-02-16T05:17:45.980Z,36.10
2023-02-16T05:20:14.373Z,37.58
2023-02-16T05:22:43.471Z,38.13
2023-02-16T05:25:11.130Z,40.30
2023-02-16T05:27:38.838Z,34.78
2023-02-16T05:30:07.576Z,36.33
2023-02-16T05:32:36.518Z,38.65
2023-02-16T05:35:04.126Z,37.38
2023-02-16T05:37:31.699Z,41.40
2023-02-16T05:39:59.272Z,34.88
2023-02-16T05:42:27.022Z,33.40
2023-02-16T05:44:54.665Z,36.30
2023-02-16T05:47:22.282Z,35.58
2023-02-16T05:49:51.158Z,34.63
2023-02-16T05:52:18.732Z,38.53
2023-02-16T05:54:46.315Z,34.28
2023-02-16T05:57:14.075Z,32.75
2023-02-16T05:59:41.595Z,36.70
2023-02-16T06:02:09.825Z,35.53
2023-02-16T06:04:37.430Z,37.17
2023-02-16T06:07:06.360Z,35.85
2023-02-16T06:09:34.464Z,32.92
2023-02-16T06:12:02.075Z,36.45
2023-02-16T06:14:29.661Z,39.90
2023-02-16T06:16:58.697Z,42.38
2023-02-16T06:19:26.352Z,41.10
2023-02-16T06:21:53.978Z,41.72
2023-02-16T06:24:23.010Z,37.70
2023-02-16T06:26:50.793Z,36.63
2023-02-16T06:29:18.370Z,40.75
2023-02-16T06:31:46.054Z,42.78
2023-02-16T06:34:13.718Z,39.95
2023-02-16T06:36:42.605Z,36.85
2023-02-16T06:39:10.532Z,39.15
2023-02-16T06:41:40.359Z,41.92
2023-02-16T06:44:12.353Z,41.08
2023-02-16T06:46:40.245Z,44.35
2023-02-16T06:49:08.308Z,35.80
2023-02-16T06:51:35.963Z,37.58
2023-02-16T06:54:04.046Z,41.50
2023-02-16T06:56:31.701Z,38.05
2023-02-16T06:59:00.633Z,42.28
2023-02-16T07:01:28.360Z,39.95
2023-02-16T07:03:57.287Z,36.50
2023-02-16T07:06:26.172Z,38.03
2023-02-16T07:08:54.308Z,37.72
2023-02-16T07:11:22.461Z,38.35
2023-02-16T07:13:50.321Z,40.63
2023-02-16T07:16:19.302Z,40.83
2023-02-16T07:18:47.404Z,38.03
2023-02-16T07:21:15.707Z,37.35
2023-02-16T07:23:43.429Z,41.88
2023-02-16T07:26:11.109Z,43.90
2023-02-16T07:28:38.706Z,43.50
2023-02-16T07:31:11.470Z,46.08
2023-02-16T07:33:41.042Z,44.88
2023-02-16T07:36:09.974Z,44.80
2023-02-16T07:38:38.266Z,40.38
2023-02-16T07:41:09.243Z,41.05
2023-02-16T07:43:37.752Z,39.35
2023-02-16T07:46:05.788Z,42.92
2023-02-16T07:48:33.377Z,37.33
2023-02-16T07:51:04.030Z,43.25
2023-02-16T07:53:31.914Z,39.63
2023-02-16T07:55:59.472Z,38.33
2023-02-16T07:58:29.864Z,40.67
2023-02-16T08:01:06.523Z,40.58
2023-02-16T08:03:34.330Z,37.60
2023-02-16T08:06:03.886Z,42.50
2023-02-16T08:08:31.789Z,40.33
2023-02-16T08:10:59.605Z,39.13
2023-02-16T08:13:27.210Z,39.05
2023-02-16T08:15:54.740Z,38.55
2023-02-16T08:18:22.324Z,38.45
2023-02-16T08:21:03.360Z,40.80
2023-02-16T08:23:33.313Z,37.97
2023-02-16T08:26:09.793Z,46.90
2023-02-16T08:28:38.559Z,37.30
2023-02-16T08:31:07.047Z,39.72
2023-02-16T08:33:36.642Z,39.70
2023-02-16T08:36:05.020Z,41.22
2023-02-16T08:38:34.371Z,39.38
2023-02-16T08:41:02.503Z,36.22
2023-02-16T08:43:30.065Z,42.33
2023-02-16T08:45:57.897Z,43.45
2023-02-16T08:48:28.614Z,35.75
2023-02-16T08:50:56.259Z,39.92
2023-02-16T08:53:24.517Z,38.45
2023-02-16T08:55:55.687Z,39.38
2023-02-16T08:58:23.623Z,36.03
2023-02-16T09:00:51.708Z,44.80
2023-02-16T09:03:20.088Z,40.97
2023-02-16T09:05:48.531Z,42.13
2023-02-16T09:08:16.608Z,40.38
2023-02-16T09:10:44.789Z,41.35
2023-02-16T09:13:16.220Z,38.72
2023-02-16T09:15:44.912Z,43.72
2023-02-16T09:18:13.984Z,38.25
2023-02-16T09:20:45.643Z,40.58
2023-02-16T09:23:14.446Z,34.85
2023-02-16T09:25:42.412Z,36.38
2023-02-16T09:28:13.746Z,40.08
2023-02-16T09:30:41.514Z,37.88
2023-02-16T09:33:09.917Z,36.60
2023-02-16T09:35:39.793Z,42.78
2023-02-16T09:38:07.910Z,43.03
2023-02-16T09:40:37.511Z,39.72
2023-02-16T09:43:14.255Z,39.00
2023-02-16T09:45:45.983Z,38.40
2023-02-16T09:48:23.329Z,36.13
2023-02-16T09:50:55.264Z,39.90
2023-02-16T09:53:29.085Z,35.97
2023-02-16T09:56:13.937Z,42.00
2023-02-16T09:58:46.054Z,37.13
2023-02-16T10:01:21.354Z,38.55
2023-02-16T10:03:56.611Z,40.97
2023-02-16T10:06:32.005Z,39.08
2023-02-16T10:09:04.200Z,40.97
2023-02-16T10:11:41.574Z,37.88
2023-02-16T10:14:17.113Z,34.22
2023-02-16T10:16:53.084Z,42.97
2023-02-16T10:19:24.207Z,40.33
2023-02-16T10:21:57.476Z,37.33
2023-02-16T10:24:27.041Z,41.03
2023-02-16T10:27:03.193Z,38.08
2023-02-16T10:29:30.870Z,43.47
2023-02-16T10:32:11.655Z,38.95
2023-02-16T10:34:49.711Z,40.85
2023-02-16T10:37:27.166Z,39.40
2023-02-16T10:40:05.571Z,43.15
2023-02-16T10:42:41.777Z,40.92
2023-02-16T10:45:21.794Z,43.83
2023-02-16T10:47:51.342Z,39.20
2023-02-16T10:50:24.311Z,38.25
2023-02-16T10:52:55.883Z,39.65
2023-02-16T10:55:23.469Z,39.80
2023-02-16T10:57:55.155Z,39.88
2023-02-16T11:00:29.005Z,41.50
2023-02-16T11:02:59.387Z,41.63
2023-02-16T11:05:37.997Z,39.95
2023-02-16T11:08:09.735Z,36.30
2023-02-16T11:10:42.003Z,41.65
2023-02-16T11:13:21.874Z,40.40
2023-02-16T11:15:54.378Z,41.15
2023-02-16T11:18:31.518Z,38.70
2023-02-16T11:20:59.502Z,39.42
2023-02-16T11:23:28.922Z,41.10
2023-02-16T11:25:59.210Z,40.00
2023-02-16T11:28:32.083Z,41.08
2023-02-16T11:31:04.648Z,41.00
2023-02-16T11:33:34.821Z,41.90
2023-02-16T11:36:05.263Z,41.05
2023-02-16T11:38:35.004Z,40.20
2023-02-16T11:41:06.321Z,45.85
2023-02-16T11:43:38.149Z,45.75
2023-02-16T11:46:11.662Z,42.47
2023-02-16T11:48:40.611Z,39.08
2023-02-16T11:51:09.871Z,40.65
2023-02-16T11:53:42.076Z,40.63
2023-02-16T11:56:29.197Z,41.05
2023-02-16T11:59:08.163Z,40.10
2023-02-16T12:01:51.698Z,41.15
2023-02-16T12:04:38.210Z,40.72
2023-02-16T12:07:15.553Z,40.75
2023-02-16T12:09:50.678Z,40.38
2023-02-16T12:12:21.840Z,45.25
2023-02-16T12:14:59.865Z,41.30
2023-02-16T12:17:44.544Z,42.42
2023-02-16T12:20:30.857Z,45.40
2023-02-16T12:23:12.104Z,40.05
2023-02-16T12:25:43.472Z,43.85
2023-02-16T12:28:26.431Z,44.95
2023-02-16T12:31:04.077Z,43.55
2023-02-16T12:33:43.533Z,49.20
2023-02-16T12:36:27.529Z,46.30
2023-02-16T12:39:03.362Z,44.42
2023-02-16T12:41:42.816Z,47.95
2023-02-16T12:44:16.279Z,46.88
2023-02-16T12:46:46.748Z,44.50
2023-02-16T12:49:21.002Z,49.15
2023-02-16T12:51:54.200Z,49.30
2023-02-16T12:54:25.799Z,45.88
2023-02-16T12:56:58.809Z,51.88
2023-02-16T12:59:35.167Z,51.72
2023-02-16T13:02:10.697Z,51.53
2023-02-16T13:04:43.353Z,47.50
2023-02-16T13:07:18.976Z,50.88
2023-02-16T13:09:54.511Z,54.20
2023-02-16T13:12:31.256Z,51.13
2023-02-16T13:15:06.422Z,46.30
2023-02-16T13:17:36.815Z,50.25
2023-02-16T13:20:05.103Z,51.55
2023-02-16T13:22:53.820Z,48.92
2023-02-16T13:25:41.818Z,50.25
2023-02-16T13:28:40.596Z,49.25
2023-02-16T13:31:24.017Z,49.22
2023-02-16T13:34:05.715Z,49.15
2023-02-16T13:37:04.714Z,46.95
2023-02-16T13:39:54.561Z,47.67
2023-02-16T13:42:45.669Z,45.60
2023-02-16T13:45:16.610Z,44.60
2023-02-16T13:47:44.567Z,44.03
2023-02-16T13:50:28.035Z,47.70
2023-02-16T13:52:57.458Z,50.85
2023-02-16T13:55:30.901Z,48.10
2023-02-16T13:58:04.393Z,50.83
2023-02-16T14:00:35.462Z,49.70
2023-02-16T14:03:08.446Z,57.33
2023-02-16T14:05:40.066Z,51.75
2023-02-16T14:08:23.449Z,50.13
2023-02-16T14:11:03.979Z,55.10
2023-02-16T14:13:33.712Z,52.63
2023-02-16T14:16:07.998Z,53.25
2023-02-16T14:18:44.455Z,53.83
2023-02-16T14:21:21.699Z,51.17
2023-02-16T14:23:56.625Z,56.35
2023-02-16T14:26:26.124Z,50.67
2023-02-16T14:29:15.867Z,53.85
2023-02-16T14:31:50.887Z,51.92
2023-02-16T14:34:27.680Z,56.15
2023-02-16T14:37:31.640Z,49.72
2023-02-16T14:40:13.233Z,49.83
2023-02-16T14:42:50.037Z,48.20
2023-02-16T14:45:59.783Z,48.40
2023-02-16T14:48:47.639Z,46.67
2023-02-16T14:51:37.768Z,49.10
2023-02-16T14:54:54.611Z,46.33
2023-02-16T14:57:27.716Z,43.45
2023-02-16T15:00:00.845Z,43.35
2023-02-16T15:02:31.802Z,44.33
2023-02-16T15:04:59.444Z,46.53
2023-02-16T15:07:29.035Z,43.22
2023-02-16T15:09:59.072Z,47.33
2023-02-16T15:12:40.479Z,43.75
2023-02-16T15:15:19.522Z,48.67
2023-02-16T15:17:49.008Z,48.05
2023-02-16T15:20:22.487Z,47.42
2023-02-16T15:22:51.412Z,46.83
2023-02-16T15:25:26.494Z,48.65
2023-02-16T15:28:04.303Z,46.60
2023-02-16T15:30:35.176Z,47.30
2023-02-16T15:33:04.953Z,46.90
2023-02-16T15:35:37.603Z,51.40
2023-02-16T15:38:09.229Z,48.10
2023-02-16T15:40:38.008Z,49.42
2023-02-16T15:43:10.950Z,46.35
2023-02-16T15:45:39.847Z,48.75
2023-02-16T15:48:29.317Z,46.83
2023-02-16T15:51:02.530Z,54.10
2023-02-16T15:53:36.060Z,48.88
2023-02-16T15:56:06.950Z,48.35
2023-02-16T15:58:34.743Z,48.63
2023-02-16T16:01:03.847Z,53.53
2023-02-16T16:03:31.689Z,53.78
2023-02-16T16:06:04.829Z,49.55
2023-02-16T16:08:33.220Z,51.63
2023-02-16T16:11:01.161Z,54.45
2023-02-16T16:13:30.826Z,61.55
2023-02-16T16:16:01.883Z,63.83
2023-02-16T16:18:43.546Z,62.05
2023-02-16T16:21:26.837Z,54.33
2023-02-16T16:24:05.324Z,58.83
2023-02-16T16:26:35.785Z,57.50
2023-02-16T16:29:04.238Z,62.75
2023-02-16T16:31:42.410Z,66.10
2023-02-16T16:34:31.863Z,65.28
2023-02-16T16:37:02.471Z,52.03
2023-02-16T16:39:31.450Z,53.22
2023-02-16T16:42:23.575Z,56.45
2023-02-16T16:44:57.908Z,51.13
2023-02-16T16:47:31.467Z,56.85
2023-02-16T16:50:02.586Z,54.65
2023-02-16T16:52:36.486Z,56.67
2023-02-16T16:55:26.756Z,57.00
2023-02-16T16:57:55.703Z,52.55
2023-02-16T17:00:26.173Z,52.58
2023-02-16T17:02:54.143Z,51.22
2023-02-16T17:05:23.036Z,47.85
2023-02-16T17:07:51.745Z,50.53
2023-02-16T17:10:21.198Z,49.10
2023-02-16T17:12:51.365Z,46.88
2023-02-16T17:15:34.551Z,49.63
2023-02-16T17:18:02.544Z,51.65
2023-02-16T17:20:31.560Z,43.38
2023-02-16T17:23:04.387Z,48.33
2023-02-16T17:25:34.365Z,50.63
2023-02-16T17:28:02.498Z,49.90
2023-02-16T17:30:30.394Z,47.20
2023-02-16T17:32:58.076Z,42.15
2023-02-16T17:35:25.959Z,45.80
2023-02-16T17:37:54.852Z,49.28
2023-02-16T17:40:24.734Z,43.15
2023-02-16T17:42:52.680Z,47.72
2023-02-16T17:45:22.828Z,43.30
2023-02-16T17:47:52.777Z,40.95
2023-02-16T17:50:21.352Z,41.03
2023-02-16T17:52:49.014Z,42.13
2023-02-16T17:55:18.045Z,43.47
2023-02-16T17:57:45.605Z,47.10
2023-02-16T18:00:18.588Z,43.50
2023-02-16T18:02:46.212Z,45.65
2023-02-16T18:05:14.661Z,45.67
2023-02-16T18:07:42.212Z,46.15
2023-02-16T18:10:20.700Z,41.88
2023-02-16T18:12:48.293Z,43.65
2023-02-16T18:15:16.072Z,43.28
2023-02-16T18:17:43.600Z,43.25
2023-02-16T18:20:15.787Z,42.90
2023-02-16T18:22:43.322Z,45.35
2023-02-16T18:25:10.892Z,49.08
2023-02-16T18:27:39.938Z,46.83
2023-02-16T18:30:09.876Z,46.08
2023-02-16T18:32:38.001Z,50.13
2023-02-16T18:35:07.055Z,45.47
2023-02-16T18:37:34.787Z,53.25
2023-02-16T18:40:02.564Z,50.20
2023-02-16T18:42:30.164Z,44.03
2023-02-16T18:44:59.037Z,44.45
2023-02-16T18:47:26.729Z,48.63
2023-02-16T18:49:54.367Z,46.85
2023-02-16T18:52:22.063Z,46.50
2023-02-16T18:54:49.656Z,45.30
2023-02-16T18:57:17.262Z,42.95
2023-02-16T18:59:45.012Z,47.08
2023-02-16T19:02:14.037Z,46.35
2023-02-16T19:04:41.795Z,40.40
2023-02-16T19:07:09.495Z,44.58
2023-02-16T19:09:37.130Z,42.95
2023-02-16T19:12:05.093Z,43.20
2023-02-16T19:14:32.730Z,42.20
2023-02-16T19:17:00.304Z,42.63
2023-02-16T19:19:30.822Z,40.75
2023-02-16T19:21:58.751Z,44.03
2023-02-16T19:24:26.398Z,45.05
2023-02-16T19:26:53.929Z,44.65
2023-02-16T19:29:21.786Z,44.75
2023-02-16T19:31:49.456Z,48.20
2023-02-16T19:34:17.145Z,45.60
2023-02-16T19:36:46.205Z,52.85
2023-02-16T19:39:13.849Z,50.85
2023-02-16T19:41:43.879Z,47.63
2023-02-16T19:44:13.889Z,51.80
2023-02-16T19:46:42.483Z,65.35
2023-02-16T19:49:12.746Z,52.40
2023-02-16T19:51:40.365Z,58.22
2023-02-16T19:54:09.682Z,51.72
2023-02-16T19:56:40.460Z,53.28
2023-02-16T19:59:08.603Z,56.03
2023-02-16T20:01:36.207Z,54.70
2023-02-16T20:04:03.997Z,58.05
2023-02-16T20:06:34.606Z,52.60
2023-02-16T20:09:03.193Z,51.30
2023-02-16T20:11:32.901Z,57.50
2023-02-16T20:14:01.107Z,58.38
2023-02-16T20:16:29.100Z,55.58
2023-02-16T20:18:57.965Z,51.67
2023-02-16T20:21:27.645Z,52.28
2023-02-16T20:23:57.546Z,50.28
2023-02-16T20:26:27.615Z,50.20
2023-02-16T20:28:57.259Z,50.60
2023-02-16T20:31:27.211Z,50.13
2023-02-16T20:33:55.654Z,52.60
2023-02-16T20:36:23.691Z,56.90
2023-02-16T20:38:51.626Z,57.42
2023-02-16T20:41:20.262Z,55.05
2023-02-16T20:43:48.220Z,54.13
2023-02-16T20:46:17.922Z,57.97
2023-02-16T20:48:46.214Z,55.67
2023-02-16T20:51:15.366Z,53.67
2023-02-16T20:53:42.931Z,56.03
2023-02-16T20:56:14.636Z,58.60
2023-02-16T20:58:43.130Z,55.30
2023-02-16T21:01:15.708Z,51.60
2023-02-16T21:03:44.645Z,55.42
2023-02-16T21:06:12.213Z,48.83
2023-02-16T21:08:39.977Z,57.33
2023-02-16T21:11:07.989Z,49.65
2023-02-16T21:13:35.805Z,48.83
2023-02-16T21:16:03.750Z,47.78
2023-02-16T21:18:31.639Z,47.67
2023-02-16T21:21:01.844Z,53.45
2023-02-16T21:23:29.579Z,48.55
2023-02-16T21:25:59.539Z,45.30
2023-02-16T21:28:27.967Z,50.53
2023-02-16T21:30:56.008Z,47.38
2023-02-16T21:33:23.574Z,49.70
2023-02-16T21:35:51.121Z,44.85
2023-02-16T21:38:20.071Z,45.88
2023-02-16T21:41:05.503Z,46.28
2023-02-16T21:43:33.057Z,43.65
2023-02-16T21:46:00.997Z,46.97
2023-02-16T21:48:45.986Z,43.05
2023-02-16T21:51:14.390Z,42.95
2023-02-16T21:53:43.426Z,43.80
2023-02-16T21:56:22.573Z,43.42
2023-02-16T21:58:50.287Z,40.03
2023-02-16T22:01:22.199Z,42.97
2023-02-16T22:03:50.217Z,43.97
2023-02-16T22:06:17.755Z,45.78
2023-02-16T22:08:46.665Z,42.83
2023-02-16T22:11:14.476Z,43.92
2023-02-16T22:13:42.119Z,42.72
2023-02-16T22:16:11.422Z,44.65
2023-02-16T22:18:39.800Z,42.45
2023-02-16T22:21:08.077Z,42.78
2023-02-16T22:23:36.072Z,41.22
2023-02-16T22:26:06.448Z,41.90
2023-02-16T22:28:34.646Z,41.50
2023-02-16T22:31:07.236Z,42.22
2023-02-16T22:33:35.079Z,42.90
2023-02-16T22:36:09.332Z,37.92
2023-02-16T22:38:36.980Z,44.35
2023-02-16T22:41:09.788Z,46.47
2023-02-16T22:43:38.151Z,43.47
2023-02-16T22:46:08.253Z,41.55
2023-02-16T22:48:36.591Z,40.75
2023-02-16T22:51:06.447Z,42.13
2023-02-16T22:53:34.774Z,43.75
2023-02-16T22:56:05.335Z,43.38
2023-02-16T22:58:34.914Z,38.15
2023-02-16T23:01:02.582Z,40.75
2023-02-16T23:03:30.862Z,40.38
2023-02-16T23:05:58.382Z,37.72
2023-02-16T23:08:25.924Z,40.70
2023-02-16T23:11:02.189Z,41.15
2023-02-16T23:13:30.913Z,40.10
2023-02-16T23:16:05.105Z,39.30
2023-02-16T23:18:33.072Z,40.53
2023-02-16T23:21:06.588Z,40.67
2023-02-16T23:23:34.475Z,35.67
2023-02-16T23:26:02.312Z,41.30
2023-02-16T23:28:29.797Z,36.60
2023-02-16T23:31:00.680Z,39.90
2023-02-16T23:33:28.349Z,37.58
2023-02-16T23:35:55.886Z,36.47
2023-02-16T23:38:23.564Z,40.85
2023-02-16T23:40:56.558Z,36.78
2023-02-16T23:43:24.165Z,37.63
2023-02-16T23:45:52.039Z,38.03
2023-02-16T23:48:20.971Z,38.03
2023-02-16T23:50:48.780Z,37.72
2023-02-16T23:53:16.547Z,38.40
2023-02-16T23:55:44.436Z,37.83
2023-02-16T23:58:11.994Z,35.03
